Airfield :
LOGIN :

Register | Disclaimer

   EN    FR    IT 

 










Legend :    VFR   Marginal VFR   IFR   Intensive IFR   Very Intensive IFR
Visi :
Ceiling :
>= 8 km
>= 3000ft
5 to 8 km
1000 to 3000 ft
1500m to 5 km
500 to 1000 ft
800 to 1500m
200 to 500 ft
< 800m
< 200 ft
Symbols :   Thunderstorms  Fog  Heavy snow  Heavy precipitations  Wind > 20 kt
SIGMETs :     Misc.  Thunderstorms  Icing  Turbulence  Mountain Waves  Volcanic Ashes






- Airport Elevation : 39 ft
- IATA code : CTA


LICC - Catania Fontanarossa

CURRENT METAR :
  • 162120Z VRB01KT CAVOK 24/17 Q1014

EXPIRED METARs :
  • 162050Z VRB02KT CAVOK 24/17 Q1014
  • 162020Z 23007KT CAVOK 25/16 Q1015
  • 161950Z 19004KT CAVOK 24/17 Q1014
  • 161920Z 07004KT 9999 FEW100 25/18 Q1014
  • 161850Z 07009KT 9999 FEW100 26/16 Q1013
  • 161820Z 05012KT 9999 FEW100 27/14 Q1013
  • 161750Z 06014KT 9999 FEW100 27/16 Q1013
  • 161720Z 06011KT 9999 FEW100 27/14 Q1012
  • 161650Z 07011KT 9999 FEW100 28/11 Q1012
  • 161620Z 06008KT 9999 SCT100 29/09 Q1013

TAF TAF LICC
Valid from the 16 at 18:00 until the 17 at 18:00 UTC


161700Z 1618/1718 VRB06KT 9999 SCT070
TEMPO 1620/1622 RA
BECMG 1708/1710 09012KT



MET'MAP, your aeronautical weather chart ! - Copyright ORBIFLY December 2007 - Disclaimer

ORBIFLY MET'MAP TEAM :

Programming & Development : Alexandra Zaïnal
Original concept : Baudouin d'Aumeries
Technical & hardware support : Manuel Goepfert
Assistance : Marc-Olivier Méhu




SOURCES & CREDITS :

   NOAA